createdAt,value
2022-12-01T00:02:28.406Z,4.43
2022-12-01T00:04:48.734Z,4.03
2022-12-01T00:07:06.948Z,4.30
2022-12-01T00:09:31.727Z,5.05
2022-12-01T00:11:34.131Z,5.40
2022-12-01T00:13:36.282Z,6.22
2022-12-01T00:15:38.063Z,5.35
2022-12-01T00:17:39.529Z,4.65
2022-12-01T00:19:40.955Z,3.78
2022-12-01T00:21:42.601Z,5.80
2022-12-01T00:23:44.719Z,5.00
2022-12-01T00:25:46.152Z,5.30
2022-12-01T00:27:48.954Z,5.22
2022-12-01T00:29:50.502Z,6.03
2022-12-01T00:31:52.477Z,4.60
2022-12-01T00:33:54.042Z,8.50
2022-12-01T00:36:00.077Z,7.05
2022-12-01T00:38:01.745Z,4.97
2022-12-01T00:40:03.980Z,5.47
2022-12-01T00:42:08.682Z,5.75
2022-12-01T00:44:14.612Z,4.05
2022-12-01T00:46:16.275Z,9.93
2022-12-01T00:48:18.205Z,11.88
2022-12-01T00:50:19.672Z,7.07
2022-12-01T00:52:21.139Z,8.95
2022-12-01T00:54:23.010Z,9.20
2022-12-01T00:56:24.629Z,9.32
2022-12-01T00:58:26.163Z,8.65
2022-12-01T01:00:27.973Z,9.00
2022-12-01T01:02:29.495Z,10.90
2022-12-01T01:04:31.954Z,9.68
2022-12-01T01:06:33.447Z,10.10
2022-12-01T01:08:35.372Z,8.52
2022-12-01T01:10:43.878Z,7.53
2022-12-01T01:12:45.330Z,8.95
2022-12-01T01:14:46.829Z,9.63
2022-12-01T01:16:48.989Z,8.82
2022-12-01T01:18:50.604Z,9.60
2022-12-01T01:21:02.863Z,9.43
2022-12-01T01:23:04.312Z,9.52
2022-12-01T01:25:05.941Z,8.25
2022-12-01T01:27:07.366Z,8.77
2022-12-01T01:29:08.822Z,7.85
2022-12-01T01:31:12.303Z,6.88
2022-12-01T01:33:13.826Z,8.13
2022-12-01T01:35:15.327Z,7.43
2022-12-01T01:37:16.743Z,7.90
2022-12-01T01:39:18.260Z,6.97
2022-12-01T01:41:20.362Z,8.25
2022-12-01T01:43:56.527Z,7.53
2022-12-01T01:45:58.104Z,6.82
2022-12-01T01:47:59.891Z,6.72
2022-12-01T01:50:06.196Z,6.45
2022-12-01T01:52:07.791Z,6.65
2022-12-01T01:54:15.794Z,6.50
2022-12-01T01:56:17.303Z,5.72
2022-12-01T01:58:19.537Z,6.43
2022-12-01T02:00:21.801Z,6.30
2022-12-01T02:02:25.657Z,8.32
2022-12-01T02:04:27.964Z,6.82
2022-12-01T02:06:29.518Z,5.82
2022-12-01T02:08:32.923Z,6.07
2022-12-01T02:10:53.374Z,5.93
2022-12-01T02:12:54.868Z,6.57
2022-12-01T02:15:14.456Z,6.30
2022-12-01T02:17:41.355Z,6.95
2022-12-01T02:19:43.198Z,6.68
2022-12-01T02:21:44.591Z,7.03
2022-12-01T02:24:05.256Z,7.05
2022-12-01T02:26:15.743Z,6.63
2022-12-01T02:28:38.058Z,6.75
2022-12-01T02:30:48.755Z,5.03
2022-12-01T02:33:01.655Z,5.75
2022-12-01T02:35:03.069Z,4.63
2022-12-01T02:37:28.586Z,3.20
2022-12-01T02:39:53.787Z,3.83
2022-12-01T02:42:11.760Z,5.82
2022-12-01T02:44:34.179Z,3.60
2022-12-01T02:46:57.206Z,3.10
2022-12-01T02:49:19.961Z,3.38
2022-12-01T02:51:37.875Z,3.15
2022-12-01T02:53:46.844Z,4.10
2022-12-01T02:56:01.713Z,3.97
2022-12-01T02:58:20.134Z,3.85
2022-12-01T03:00:38.230Z,3.25
2022-12-01T03:03:10.149Z,3.95
2022-12-01T03:05:42.424Z,3.58
2022-12-01T03:07:58.573Z,2.63
2022-12-01T03:10:26.222Z,2.67
2022-12-01T03:12:45.960Z,2.00
2022-12-01T03:15:09.943Z,1.70
2022-12-01T03:17:15.422Z,2.08
2022-12-01T03:19:27.098Z,2.00
2022-12-01T03:21:37.075Z,2.25
2022-12-01T03:23:41.184Z,2.40
2022-12-01T03:25:45.127Z,2.30
2022-12-01T03:28:13.835Z,3.15
2022-12-01T03:30:10.968Z,3.08
2022-12-01T03:32:12.960Z,2.47
2022-12-01T03:34:14.721Z,2.97
2022-12-01T03:36:21.679Z,2.65
2022-12-01T03:38:26.897Z,2.45
2022-12-01T03:40:30.255Z,2.35
2022-12-01T03:42:43.405Z,2.90
2022-12-01T03:44:47.688Z,3.88
2022-12-01T03:48:52.915Z,2.63
2022-12-01T03:51:03.800Z,3.00
2022-12-01T03:53:19.206Z,3.03
2022-12-01T03:55:26.203Z,2.88
2022-12-01T03:57:47.899Z,2.80
2022-12-01T03:59:49.625Z,3.15
2022-12-01T04:01:51.476Z,2.20
2022-12-01T04:03:52.987Z,2.65
2022-12-01T04:05:54.421Z,3.20
2022-12-01T04:07:56.181Z,1.92
2022-12-01T04:09:57.759Z,3.72
2022-12-01T04:12:17.645Z,2.95
2022-12-01T04:14:19.374Z,4.05
2022-12-01T04:16:20.872Z,3.75
2022-12-01T04:18:22.406Z,3.28
2022-12-01T04:20:23.829Z,2.63
2022-12-01T04:22:25.997Z,2.60
2022-12-01T04:24:27.486Z,2.42
2022-12-01T04:26:29.946Z,2.33
2022-12-01T04:28:31.572Z,1.50
2022-12-01T04:30:32.987Z,1.80
2022-12-01T04:32:42.130Z,2.25
2022-12-01T04:34:43.590Z,1.75
2022-12-01T04:36:45.087Z,1.38
2022-12-01T04:38:46.598Z,1.98
2022-12-01T04:40:48.088Z,2.45
2022-12-01T04:42:49.554Z,1.98
2022-12-01T04:44:50.960Z,2.22
2022-12-01T04:46:53.244Z,2.30
2022-12-01T04:48:54.780Z,2.40
2022-12-01T04:50:56.389Z,2.38
2022-12-01T04:52:57.852Z,1.92
2022-12-01T04:54:59.299Z,2.17
2022-12-01T04:57:00.856Z,1.75
2022-12-01T04:59:02.449Z,1.35
2022-12-01T05:01:08.283Z,1.35
2022-12-01T05:03:14.884Z,2.13
2022-12-01T05:05:16.731Z,1.70
2022-12-01T05:07:18.344Z,2.90
2022-12-01T05:09:21.337Z,2.08
2022-12-01T05:11:23.182Z,1.52
2022-12-01T05:13:24.903Z,2.47
2022-12-01T05:15:26.371Z,2.70
2022-12-01T05:17:35.519Z,4.05
2022-12-01T05:19:57.374Z,6.50
2022-12-01T05:21:58.811Z,5.32
2022-12-01T05:24:00.239Z,4.85
2022-12-01T05:26:02.879Z,4.40
2022-12-01T05:28:04.969Z,4.85
2022-12-01T05:30:06.868Z,4.68
2022-12-01T05:32:08.416Z,4.50
2022-12-01T05:34:09.860Z,8.55
2022-12-01T05:36:11.806Z,6.70
2022-12-01T05:38:13.470Z,7.50
2022-12-01T05:40:15.103Z,7.07
2022-12-01T05:42:17.803Z,5.85
2022-12-01T05:44:21.730Z,5.15
2022-12-01T05:46:26.306Z,4.13
2022-12-01T05:48:30.959Z,4.20
2022-12-01T05:50:35.450Z,3.30
2022-12-01T05:54:42.894Z,3.40
2022-12-01T05:58:51.488Z,2.90
2022-12-01T06:00:56.196Z,4.53
2022-12-01T06:03:00.065Z,4.05
2022-12-01T06:05:04.837Z,3.20
2022-12-01T06:07:09.150Z,3.05
2022-12-01T06:09:13.996Z,7.07
2022-12-01T06:11:18.386Z,3.20
2022-12-01T06:13:22.860Z,4.03
2022-12-01T06:17:34.554Z,2.38
2022-12-01T06:19:40.575Z,3.03
2022-12-01T06:21:42.032Z,1.77
2022-12-01T06:23:43.664Z,2.08
2022-12-01T06:25:45.097Z,2.03
2022-12-01T06:27:47.092Z,3.35
2022-12-01T06:29:49.810Z,1.33
2022-12-01T06:31:51.556Z,2.30
2022-12-01T06:33:53.043Z,1.17
2022-12-01T06:36:01.581Z,2.67
2022-12-01T06:38:03.170Z,2.85
2022-12-01T06:40:05.251Z,2.35
2022-12-01T06:42:06.829Z,1.60
2022-12-01T06:44:08.346Z,2.65
2022-12-01T06:46:10.088Z,1.85
2022-12-01T06:48:12.743Z,1.92
2022-12-01T06:50:14.217Z,1.45
2022-12-01T06:52:15.647Z,1.33
2022-12-01T06:54:18.055Z,3.35
2022-12-01T06:56:19.584Z,2.78
2022-12-01T06:58:21.572Z,2.05
2022-12-01T07:00:23.651Z,1.75
2022-12-01T07:02:25.385Z,1.75
2022-12-01T07:04:26.859Z,1.17
2022-12-01T07:06:29.659Z,1.30
2022-12-01T07:08:31.878Z,1.20
2022-12-01T07:10:33.414Z,1.10
2022-12-01T07:12:34.984Z,1.15
2022-12-01T07:14:36.592Z,1.00
2022-12-01T07:16:38.105Z,0.80
2022-12-01T07:18:40.562Z,1.10
2022-12-01T07:20:42.119Z,1.38
2022-12-01T07:22:43.879Z,2.35
2022-12-01T07:24:45.303Z,1.08
2022-12-01T07:26:48.016Z,1.23
2022-12-01T07:28:49.952Z,0.82
2022-12-01T07:30:51.483Z,1.52
2022-12-01T07:32:53.214Z,2.50
2022-12-01T07:34:54.662Z,2.70
2022-12-01T07:36:56.360Z,1.77
2022-12-01T07:38:57.962Z,2.17
2022-12-01T07:41:03.959Z,2.17
2022-12-01T07:43:05.386Z,1.98
2022-12-01T07:45:07.016Z,2.53
2022-12-01T07:47:08.454Z,2.33
2022-12-01T07:49:11.803Z,2.05
2022-12-01T07:51:16.757Z,1.97
2022-12-01T07:53:18.481Z,1.85
2022-12-01T07:55:20.019Z,1.50
2022-12-01T07:57:21.507Z,2.88
2022-12-01T07:59:22.932Z,2.78
2022-12-01T08:01:25.253Z,2.00
2022-12-01T08:03:26.715Z,2.08
2022-12-01T08:05:28.328Z,2.30
2022-12-01T08:07:30.139Z,3.83
2022-12-01T08:09:31.671Z,2.83
2022-12-01T08:11:33.508Z,3.08
2022-12-01T08:13:35.030Z,3.28
2022-12-01T08:15:36.932Z,1.90
2022-12-01T08:17:38.396Z,3.03
2022-12-01T08:19:39.828Z,1.63
2022-12-01T08:21:41.527Z,1.45
2022-12-01T08:23:43.272Z,1.17
2022-12-01T08:25:44.752Z,1.48
2022-12-01T08:27:46.393Z,1.58
2022-12-01T08:29:48.246Z,2.55
2022-12-01T08:31:50.018Z,2.00
2022-12-01T08:33:51.826Z,1.42
2022-12-01T08:35:53.255Z,1.65
2022-12-01T08:37:54.758Z,1.75
2022-12-01T08:39:56.276Z,0.82
2022-12-01T08:41:57.728Z,0.98
2022-12-01T08:44:00.088Z,0.88
2022-12-01T08:46:03.012Z,1.58
2022-12-01T08:48:08.354Z,2.47
2022-12-01T08:50:23.944Z,3.78
2022-12-01T08:52:36.111Z,4.47
2022-12-01T08:54:48.061Z,3.42
2022-12-01T08:57:03.676Z,4.05
2022-12-01T08:59:19.204Z,4.00
2022-12-01T09:01:30.609Z,2.38
2022-12-01T09:03:46.847Z,3.25
2022-12-01T09:06:01.811Z,4.43
2022-12-01T09:08:30.716Z,6.65
2022-12-01T09:10:46.504Z,7.18
2022-12-01T09:12:58.520Z,5.55
2022-12-01T09:15:16.512Z,6.07
2022-12-01T09:17:28.066Z,5.70
2022-12-01T09:19:43.799Z,4.45
2022-12-01T09:22:01.359Z,4.60
2022-12-01T09:24:05.497Z,7.05
2022-12-01T09:26:12.117Z,3.90
2022-12-01T09:28:14.961Z,4.10
2022-12-01T09:30:16.447Z,4.97
2022-12-01T09:32:17.947Z,4.50
2022-12-01T09:34:20.105Z,4.65
2022-12-01T09:36:21.628Z,6.75
2022-12-01T09:38:23.050Z,5.97
2022-12-01T09:40:38.486Z,5.43
2022-12-01T09:42:41.061Z,6.72
2022-12-01T09:44:49.725Z,6.03
2022-12-01T09:46:58.808Z,5.82
2022-12-01T09:49:01.599Z,3.72
2022-12-01T09:51:03.184Z,3.00
2022-12-01T09:53:07.490Z,3.60
2022-12-01T09:57:30.943Z,5.90
2022-12-01T09:59:35.851Z,5.63
2022-12-01T10:01:38.377Z,6.88
2022-12-01T10:03:46.449Z,5.57
2022-12-01T10:08:26.968Z,5.95
2022-12-01T10:10:34.444Z,6.05
2022-12-01T10:12:36.356Z,3.75
2022-12-01T10:14:38.065Z,2.72
2022-12-01T10:16:59.867Z,3.40
2022-12-01T10:19:05.941Z,4.85
2022-12-01T10:21:13.538Z,4.25
2022-12-01T10:23:34.095Z,4.55
2022-12-01T10:25:54.535Z,3.92
2022-12-01T10:28:07.508Z,6.20
2022-12-01T10:30:12.475Z,7.07
2022-12-01T10:32:14.120Z,6.30
2022-12-01T10:34:23.456Z,8.15
2022-12-01T10:36:26.329Z,8.15
2022-12-01T10:38:32.784Z,5.82
2022-12-01T10:40:35.427Z,5.95
2022-12-01T10:42:39.983Z,7.88
2022-12-01T10:44:42.453Z,6.22
2022-12-01T10:46:45.682Z,6.28
2022-12-01T10:48:55.029Z,10.40
2022-12-01T10:51:13.707Z,6.95
2022-12-01T10:53:26.416Z,8.05
2022-12-01T10:55:30.176Z,10.48
2022-12-01T10:57:32.205Z,13.18
2022-12-01T10:59:49.915Z,11.38
2022-12-01T11:01:52.992Z,11.68
2022-12-01T11:04:01.638Z,8.98
2022-12-01T11:06:05.268Z,12.18
2022-12-01T11:08:06.900Z,11.57
2022-12-01T11:10:17.132Z,8.27
2022-12-01T11:12:20.539Z,9.02
2022-12-01T11:14:28.328Z,5.50
2022-12-01T11:16:38.098Z,4.35
2022-12-01T11:18:39.821Z,5.55
2022-12-01T11:20:41.462Z,7.40
2022-12-01T11:22:42.942Z,9.38
2022-12-01T11:24:55.481Z,7.68
2022-12-01T11:26:58.727Z,7.25
2022-12-01T11:29:02.325Z,6.70
2022-12-01T11:31:07.745Z,7.28
2022-12-01T11:33:14.756Z,5.82
2022-12-01T11:35:18.178Z,6.07
2022-12-01T11:37:21.323Z,7.43
2022-12-01T11:39:23.118Z,8.07
2022-12-01T11:41:37.002Z,6.43
2022-12-01T11:43:40.656Z,7.47
2022-12-01T11:45:44.660Z,6.13
2022-12-01T11:47:58.405Z,6.22
2022-12-01T11:50:07.983Z,5.50
2022-12-01T11:52:47.377Z,6.43
2022-12-01T11:55:14.782Z,6.22
2022-12-01T11:57:35.630Z,6.50
2022-12-01T11:59:41.684Z,4.80
2022-12-01T12:02:10.315Z,8.55
2022-12-01T12:04:34.553Z,9.35
2022-12-01T12:07:04.148Z,7.85
2022-12-01T12:09:20.877Z,7.38
2022-12-01T12:11:34.567Z,10.45
2022-12-01T12:13:46.417Z,9.68
2022-12-01T12:16:10.141Z,8.60
2022-12-01T12:18:43.192Z,8.85
2022-12-01T12:21:15.483Z,8.43
2022-12-01T12:23:46.639Z,8.55
2022-12-01T12:26:19.230Z,10.18
2022-12-01T12:28:45.515Z,8.73
2022-12-01T12:31:03.868Z,7.55
2022-12-01T12:33:10.116Z,7.28
2022-12-01T12:35:16.324Z,6.30
2022-12-01T12:37:20.638Z,6.18
2022-12-01T12:39:34.235Z,7.22
2022-12-01T12:41:35.925Z,7.95
2022-12-01T12:43:43.544Z,7.80
2022-12-01T12:45:59.923Z,7.47
2022-12-01T12:48:16.809Z,7.78
2022-12-01T12:50:25.834Z,10.15
2022-12-01T12:52:36.586Z,8.60
2022-12-01T12:55:01.485Z,6.43
2022-12-01T12:57:11.114Z,6.85
2022-12-01T12:59:32.854Z,7.85
2022-12-01T13:01:41.697Z,7.65
2022-12-01T13:03:43.314Z,8.57
2022-12-01T13:05:44.747Z,6.43
2022-12-01T13:07:50.095Z,6.82
2022-12-01T13:09:55.813Z,7.93
2022-12-01T13:12:16.614Z,7.95
2022-12-01T13:14:40.643Z,6.50
2022-12-01T13:16:44.687Z,6.07
2022-12-01T13:19:12.187Z,5.72
2022-12-01T13:21:17.558Z,6.30
2022-12-01T13:23:21.258Z,5.28
2022-12-01T13:25:53.258Z,5.55
2022-12-01T13:27:55.238Z,6.90
2022-12-01T13:29:56.897Z,5.22
2022-12-01T13:31:58.435Z,6.90
2022-12-01T13:34:01.388Z,11.23
2022-12-01T13:36:44.579Z,9.50
2022-12-01T13:38:36.916Z,9.00
2022-12-01T13:40:39.040Z,10.02
2022-12-01T13:42:41.059Z,8.40
2022-12-01T13:44:44.266Z,8.73
2022-12-01T13:46:45.740Z,7.63
2022-12-01T13:48:48.702Z,7.63
2022-12-01T13:50:53.281Z,6.38
2022-12-01T13:53:06.446Z,9.30
2022-12-01T13:55:08.122Z,6.55
2022-12-01T13:57:14.355Z,9.07
2022-12-01T13:59:34.664Z,5.57
2022-12-01T14:01:43.746Z,7.32
2022-12-01T14:04:01.125Z,5.97
2022-12-01T14:06:07.378Z,9.13
2022-12-01T14:08:26.153Z,6.95
2022-12-01T14:10:29.748Z,8.05
2022-12-01T14:12:34.580Z,6.72
2022-12-01T14:14:37.492Z,8.60
2022-12-01T14:16:55.591Z,6.93
2022-12-01T14:18:58.590Z,9.80
2022-12-01T14:21:01.100Z,7.95
2022-12-01T14:23:24.228Z,5.82
2022-12-01T14:25:28.906Z,8.40
2022-12-01T14:27:34.588Z,6.40
2022-12-01T14:29:42.951Z,5.97
2022-12-01T14:31:46.313Z,6.88
2022-12-01T14:33:53.857Z,6.38
2022-12-01T14:35:58.587Z,6.07
2022-12-01T14:38:00.411Z,7.88
2022-12-01T14:40:07.168Z,6.95
2022-12-01T14:42:12.032Z,6.75
2022-12-01T14:44:13.578Z,6.55
2022-12-01T14:46:19.619Z,8.82
2022-12-01T14:48:26.732Z,9.73
2022-12-01T14:50:31.892Z,6.00
2022-12-01T14:52:36.426Z,5.43
2022-12-01T14:54:45.240Z,5.85
2022-12-01T14:56:50.356Z,4.55
2022-12-01T14:58:59.501Z,5.03
2022-12-01T15:01:08.060Z,4.90
2022-12-01T15:03:18.176Z,4.25
2022-12-01T15:05:25.331Z,4.68
2022-12-01T15:07:31.907Z,5.07
2022-12-01T15:10:08.553Z,6.25
2022-12-01T15:12:26.269Z,4.68
2022-12-01T15:14:34.044Z,7.55
2022-12-01T15:16:45.603Z,3.40
2022-12-01T15:18:53.781Z,5.03
2022-12-01T15:20:59.961Z,5.00
2022-12-01T15:23:10.356Z,4.90
2022-12-01T15:25:17.419Z,4.60
2022-12-01T15:27:35.010Z,4.40
2022-12-01T15:29:48.645Z,4.82
2022-12-01T15:31:57.346Z,6.97
2022-12-01T15:34:01.568Z,4.15
2022-12-01T15:36:04.496Z,5.07
2022-12-01T15:38:07.330Z,4.60
2022-12-01T15:42:39.337Z,4.95
2022-12-01T15:44:41.163Z,3.67
2022-12-01T15:46:43.869Z,5.68
2022-12-01T15:48:48.324Z,11.07
2022-12-01T15:50:59.040Z,6.10
2022-12-01T15:53:02.241Z,4.95
2022-12-01T15:55:04.735Z,8.38
2022-12-01T15:57:06.780Z,8.50
2022-12-01T15:59:22.864Z,6.63
2022-12-01T16:01:29.079Z,8.65
2022-12-01T16:03:31.176Z,7.63
2022-12-01T16:05:35.364Z,8.95
2022-12-01T16:08:12.171Z,7.43
2022-12-01T16:10:00.245Z,7.32
2022-12-01T16:12:16.787Z,8.18
2022-12-01T16:14:22.554Z,7.57
2022-12-01T16:16:43.879Z,10.90
2022-12-01T16:18:52.249Z,9.57
2022-12-01T16:20:53.873Z,8.38
2022-12-01T16:23:00.037Z,9.23
2022-12-01T16:25:02.143Z,8.38
2022-12-01T16:27:03.632Z,8.82
2022-12-01T16:29:14.083Z,9.10
2022-12-01T16:31:19.108Z,9.82
2022-12-01T16:33:22.331Z,6.43
2022-12-01T16:35:31.451Z,6.90
2022-12-01T16:37:32.931Z,7.70
2022-12-01T16:39:34.435Z,6.50
2022-12-01T16:41:38.745Z,6.32
2022-12-01T16:43:50.202Z,7.82
2022-12-01T16:46:03.188Z,7.45
2022-12-01T16:48:09.119Z,6.75
2022-12-01T16:50:15.597Z,10.10
2022-12-01T16:54:38.911Z,8.80
2022-12-01T16:56:40.746Z,11.52
2022-12-01T16:58:42.180Z,6.60
2022-12-01T17:00:43.771Z,8.88
2022-12-01T17:02:45.310Z,8.80
2022-12-01T17:05:12.288Z,7.68
2022-12-01T17:07:13.778Z,7.47
2022-12-01T17:09:15.607Z,6.20
2022-12-01T17:11:17.050Z,7.95
2022-12-01T17:13:19.568Z,5.60
2022-12-01T17:15:21.137Z,6.22
2022-12-01T17:17:23.319Z,4.90
2022-12-01T17:19:24.788Z,5.75
2022-12-01T17:21:26.545Z,5.03
2022-12-01T17:23:28.424Z,5.25
2022-12-01T17:25:29.951Z,6.85
2022-12-01T17:27:31.902Z,5.05
2022-12-01T17:29:33.781Z,5.93
2022-12-01T17:31:35.369Z,4.93
2022-12-01T17:33:36.978Z,4.47
2022-12-01T17:35:38.940Z,5.20
2022-12-01T17:37:40.866Z,5.43
2022-12-01T17:39:42.292Z,6.15
2022-12-01T17:41:43.751Z,4.30
2022-12-01T17:43:45.270Z,3.75
2022-12-01T17:45:46.938Z,5.28
2022-12-01T17:47:48.723Z,3.70
2022-12-01T17:49:50.220Z,5.00
2022-12-01T17:51:51.969Z,4.65
2022-12-01T17:53:54.026Z,4.25
2022-12-01T17:55:55.483Z,3.70
2022-12-01T17:57:58.768Z,4.55
2022-12-01T18:00:01.894Z,4.30
2022-12-01T18:02:03.950Z,3.80
2022-12-01T18:04:05.535Z,3.63
2022-12-01T18:06:10.252Z,3.65
2022-12-01T18:08:19.795Z,5.05
2022-12-01T18:10:30.374Z,4.93
2022-12-01T18:12:52.345Z,3.45
2022-12-01T18:15:08.437Z,4.05
2022-12-01T18:17:15.802Z,5.18
2022-12-01T18:19:22.804Z,9.65
2022-12-01T18:21:40.574Z,11.13
2022-12-01T18:24:01.560Z,17.35
2022-12-01T18:26:16.194Z,13.48
2022-12-01T18:28:38.682Z,13.88
2022-12-01T18:31:02.017Z,17.17
2022-12-01T18:33:26.728Z,21.45
2022-12-01T18:35:42.426Z,12.80
2022-12-01T18:37:53.738Z,13.13
2022-12-01T18:40:03.512Z,12.82
2022-12-01T18:42:06.871Z,13.40
2022-12-01T18:44:08.657Z,15.15
2022-12-01T18:46:10.784Z,12.65
2022-12-01T18:48:12.245Z,13.35
2022-12-01T18:50:13.739Z,18.08
2022-12-01T18:52:15.488Z,17.13
2022-12-01T18:54:17.010Z,13.13
2022-12-01T18:56:19.827Z,13.75
2022-12-01T18:58:21.611Z,13.75
2022-12-01T19:00:23.149Z,17.63
2022-12-01T19:02:24.740Z,13.68
2022-12-01T19:04:26.437Z,12.32
2022-12-01T19:06:28.426Z,11.40
2022-12-01T19:08:30.149Z,16.52
2022-12-01T19:10:31.738Z,16.85
2022-12-01T19:12:39.407Z,17.48
2022-12-01T19:14:42.342Z,16.35
2022-12-01T19:16:44.228Z,16.80
2022-12-01T19:18:46.111Z,12.45
2022-12-01T19:20:47.562Z,14.73
2022-12-01T19:22:49.294Z,13.77
2022-12-01T19:24:51.656Z,13.45
2022-12-01T19:26:54.855Z,14.57
2022-12-01T19:28:56.445Z,17.25
2022-12-01T19:31:49.201Z,16.42
2022-12-01T19:34:41.118Z,14.57
2022-12-01T19:36:42.997Z,14.25
2022-12-01T19:38:45.124Z,11.68
2022-12-01T19:40:46.575Z,10.02
2022-12-01T19:42:48.070Z,14.10
2022-12-01T19:44:50.257Z,16.77
2022-12-01T19:46:52.102Z,15.80
2022-12-01T19:48:55.339Z,18.15
2022-12-01T19:50:56.870Z,12.90
2022-12-01T19:52:58.288Z,9.90
2022-12-01T19:55:00.043Z,10.95
2022-12-01T19:57:02.293Z,11.65
2022-12-01T19:59:04.932Z,7.43
2022-12-01T20:01:07.714Z,12.88
2022-12-01T20:03:09.227Z,13.00
2022-12-01T20:05:10.951Z,12.60
2022-12-01T20:07:12.384Z,12.40
2022-12-01T20:09:14.294Z,18.38
2022-12-01T20:11:15.904Z,12.57
2022-12-01T20:13:17.418Z,11.23
2022-12-01T20:15:19.240Z,12.68
2022-12-01T20:17:21.394Z,10.68
2022-12-01T20:19:22.847Z,14.70
2022-12-01T20:21:25.619Z,17.60
2022-12-01T20:23:27.095Z,13.98
2022-12-01T20:25:28.870Z,19.50
2022-12-01T20:27:30.332Z,15.63
2022-12-01T20:29:31.764Z,14.60
2022-12-01T20:31:34.189Z,15.95
2022-12-01T20:33:36.524Z,15.38
2022-12-01T20:35:38.123Z,13.20
2022-12-01T20:37:39.594Z,16.02
2022-12-01T20:39:41.436Z,13.60
2022-12-01T20:41:43.391Z,13.13
2022-12-01T20:43:44.931Z,10.20
2022-12-01T20:45:46.472Z,8.75
2022-12-01T20:47:47.943Z,9.65
2022-12-01T20:49:52.027Z,11.25
2022-12-01T20:51:55.835Z,13.95
2022-12-01T20:54:26.116Z,14.07
2022-12-01T20:56:18.917Z,17.80
2022-12-01T20:58:20.343Z,24.17
2022-12-01T21:00:21.840Z,17.15
2022-12-01T21:02:23.311Z,15.38
2022-12-01T21:04:25.075Z,16.77
2022-12-01T21:06:26.618Z,15.32
2022-12-01T21:08:28.046Z,15.63
2022-12-01T21:10:33.781Z,14.73
2022-12-01T21:12:59.217Z,16.77
2022-12-01T21:15:32.980Z,22.95
2022-12-01T21:17:55.632Z,33.42
2022-12-01T21:20:15.997Z,23.65
2022-12-01T21:22:34.965Z,20.52
2022-12-01T21:24:49.071Z,17.80
2022-12-01T21:27:08.424Z,12.43
2022-12-01T21:29:31.711Z,20.98
2022-12-01T21:31:46.740Z,17.33
2022-12-01T21:33:59.216Z,21.35
2022-12-01T21:36:26.767Z,17.60
2022-12-01T21:38:41.942Z,20.00
2022-12-01T21:41:00.993Z,17.67
2022-12-01T21:43:32.610Z,14.75
2022-12-01T21:45:52.102Z,17.13
2022-12-01T21:48:20.771Z,13.35
2022-12-01T21:50:33.930Z,19.35
2022-12-01T21:54:40.792Z,20.35
2022-12-01T21:56:42.290Z,19.38
2022-12-01T21:58:44.055Z,22.75
2022-12-01T22:00:45.533Z,19.73
2022-12-01T22:02:51.760Z,19.77
2022-12-01T22:04:53.276Z,18.20
2022-12-01T22:06:56.274Z,13.50
2022-12-01T22:08:59.745Z,12.77
2022-12-01T22:11:01.473Z,16.35
2022-12-01T22:13:07.935Z,11.93
2022-12-01T22:15:24.477Z,24.85
2022-12-01T22:17:26.884Z,13.23
2022-12-01T22:19:30.046Z,17.25
2022-12-01T22:21:32.945Z,13.77
2022-12-01T22:23:35.325Z,16.08
2022-12-01T22:25:37.358Z,12.68
2022-12-01T22:27:39.462Z,18.38
2022-12-01T22:29:45.298Z,30.23
2022-12-01T22:31:47.341Z,19.42
2022-12-01T22:33:51.139Z,18.48
2022-12-01T22:35:52.924Z,14.82
2022-12-01T22:38:14.672Z,14.23
2022-12-01T22:40:28.120Z,24.17
2022-12-01T22:42:34.228Z,22.88
2022-12-01T22:44:35.619Z,13.85
2022-12-01T22:46:40.426Z,10.55
2022-12-01T22:48:43.583Z,14.43
2022-12-01T22:50:48.736Z,22.05
2022-12-01T22:52:54.274Z,17.63
2022-12-01T22:54:55.723Z,17.38
2022-12-01T22:57:00.843Z,10.35
2022-12-01T22:59:10.227Z,11.57
2022-12-01T23:01:20.125Z,9.32
2022-12-01T23:03:47.050Z,13.40
2022-12-01T23:05:52.248Z,13.90
2022-12-01T23:07:54.615Z,23.02
2022-12-01T23:09:58.639Z,13.55
2022-12-01T23:12:04.524Z,12.90
2022-12-01T23:14:09.019Z,10.70
2022-12-01T23:16:10.937Z,12.52
2022-12-01T23:18:12.437Z,20.50
2022-12-01T23:20:20.120Z,20.88
2022-12-01T23:22:21.649Z,21.60
2022-12-01T23:24:23.162Z,21.88
2022-12-01T23:26:24.829Z,24.60
2022-12-01T23:28:26.307Z,24.08
2022-12-01T23:30:27.872Z,27.85
2022-12-01T23:32:29.357Z,15.27
2022-12-01T23:34:30.836Z,14.52
2022-12-01T23:36:32.355Z,24.25
2022-12-01T23:38:38.623Z,15.50
2022-12-01T23:40:40.138Z,17.50
2022-12-01T23:42:41.862Z,14.15
2022-12-01T23:44:45.537Z,22.25
2022-12-01T23:46:52.900Z,15.70
2022-12-01T23:49:02.215Z,21.30
2022-12-01T23:51:04.325Z,15.38
2022-12-01T23:53:05.992Z,16.80
2022-12-01T23:55:30.599Z,17.00
2022-12-01T23:57:32.291Z,14.60
2022-12-01T23:59:33.771Z,17.92
